createdAt,value
2018-01-12T00:02:24.572Z,30.23
2018-01-12T00:04:52.218Z,34.17
2018-01-12T00:07:19.849Z,34.60
2018-01-12T00:09:47.459Z,33.53
2018-01-12T00:12:15.118Z,36.03
2018-01-12T00:14:42.722Z,42.30
2018-01-12T00:17:10.400Z,32.40
2018-01-12T00:19:38.131Z,31.40
2018-01-12T00:22:09.342Z,31.20
2018-01-12T00:24:36.966Z,38.17
2018-01-12T00:27:04.590Z,35.40
2018-01-12T00:29:32.198Z,31.57
2018-01-12T00:31:59.858Z,36.87
2018-01-12T00:34:27.474Z,37.10
2018-01-12T00:36:55.146Z,31.20
2018-01-12T00:39:22.743Z,35.90
2018-01-12T00:41:50.410Z,28.50
2018-01-12T00:44:18.275Z,29.00
2018-01-12T00:46:45.910Z,31.47
2018-01-12T00:49:13.528Z,36.23
2018-01-12T00:51:41.172Z,28.33
2018-01-12T00:54:08.858Z,34.57
2018-01-12T00:56:36.626Z,31.13
2018-01-12T00:59:04.240Z,33.80
2018-01-12T01:01:31.871Z,30.23
2018-01-12T01:03:59.579Z,35.00
2018-01-12T01:06:27.221Z,32.43
2018-01-12T01:08:54.866Z,31.20
2018-01-12T01:11:22.532Z,29.43
2018-01-12T01:13:50.362Z,32.07
2018-01-12T01:16:18.019Z,32.67
2018-01-12T01:18:45.624Z,29.27
2018-01-12T01:21:13.261Z,35.10
2018-01-12T01:23:40.885Z,35.67
2018-01-12T01:26:08.549Z,28.57
2018-01-12T01:28:36.225Z,32.10
2018-01-12T01:31:03.868Z,27.80
2018-01-12T01:33:31.493Z,28.93
2018-01-12T01:35:59.146Z,32.03
2018-01-12T01:38:26.774Z,28.63
2018-01-12T01:40:54.435Z,34.00
2018-01-12T01:43:22.094Z,30.23
2018-01-12T01:45:49.811Z,30.80
2018-01-12T02:12:50.436Z,30.20
2018-01-12T02:15:19.007Z,34.80
2018-01-12T02:17:46.804Z,43.27
2018-01-12T02:20:14.459Z,33.60
2018-01-12T02:22:42.084Z,34.33
2018-01-12T02:25:09.708Z,36.90
2018-01-12T02:27:37.554Z,33.33
2018-01-12T02:30:05.245Z,49.03
2018-01-12T02:32:32.919Z,35.93
2018-01-12T02:35:00.695Z,35.67
2018-01-12T02:37:28.313Z,32.83
2018-01-12T02:39:55.965Z,36.40
2018-01-12T02:42:23.560Z,34.80
2018-01-12T02:44:51.210Z,30.57
2018-01-12T02:47:18.827Z,32.97
2018-01-12T02:49:46.483Z,30.57
2018-01-12T02:52:14.976Z,37.40
2018-01-12T02:54:42.644Z,32.67
2018-01-12T02:57:10.447Z,34.43
2018-01-12T02:59:38.082Z,41.00
2018-01-12T03:02:05.729Z,31.87
2018-01-12T03:04:33.458Z,34.93
2018-01-12T03:07:01.722Z,35.30
2018-01-12T03:09:29.366Z,28.97
2018-01-12T03:11:57.192Z,37.03
2018-01-12T03:14:24.835Z,41.07
2018-01-12T03:16:53.256Z,31.87
2018-01-12T03:19:20.892Z,30.03
2018-01-12T03:21:48.553Z,33.93
2018-01-12T03:24:16.319Z,38.30
2018-01-12T03:26:43.923Z,34.97
2018-01-12T03:29:11.586Z,34.37
2018-01-12T03:31:39.191Z,31.97
2018-01-12T03:34:06.840Z,29.67
2018-01-12T03:36:34.488Z,31.60
2018-01-12T03:39:02.670Z,33.40
2018-01-12T03:41:30.371Z,38.50
2018-01-12T03:43:58.018Z,35.07
2018-01-12T03:46:26.226Z,35.30
2018-01-12T03:48:53.875Z,36.97
2018-01-12T03:51:21.533Z,32.80
2018-01-12T03:53:49.187Z,29.63
2018-01-12T03:56:16.788Z,34.53
2018-01-12T03:58:44.436Z,37.63
2018-01-12T04:01:12.164Z,31.33
2018-01-12T04:03:39.946Z,36.10
2018-01-12T04:06:07.665Z,45.80
2018-01-12T04:08:35.429Z,37.47
2018-01-12T04:11:04.075Z,42.77
2018-01-12T04:13:31.839Z,36.07
2018-01-12T04:15:59.534Z,38.70
2018-01-12T04:18:27.295Z,44.27
2018-01-12T04:20:54.995Z,45.50
2018-01-12T04:23:22.736Z,45.40
2018-01-12T04:25:50.465Z,35.40
2018-01-12T04:28:18.292Z,39.00
2018-01-12T04:30:45.925Z,43.93
2018-01-12T04:33:13.636Z,44.03
2018-01-12T04:35:41.315Z,43.23
2018-01-12T04:38:08.981Z,42.63
2018-01-12T04:40:36.606Z,46.97
2018-01-12T04:43:04.321Z,43.80
2018-01-12T04:45:32.057Z,46.87
2018-01-12T04:47:59.724Z,45.70
2018-01-12T04:50:27.362Z,54.73
2018-01-12T04:52:55.113Z,47.53
2018-01-12T04:55:22.743Z,56.27
2018-01-12T04:57:50.473Z,49.30
2018-01-12T05:00:18.130Z,51.70
2018-01-12T05:02:45.832Z,53.83
2018-01-12T05:05:13.456Z,52.50
2018-01-12T05:07:41.101Z,55.03
2018-01-12T05:10:08.737Z,54.33
2018-01-12T05:12:36.382Z,79.70
2018-01-12T05:15:03.979Z,67.77
2018-01-12T05:17:31.662Z,61.10
2018-01-12T05:19:59.292Z,50.50
2018-01-12T05:22:26.944Z,67.03
2018-01-12T05:24:54.547Z,54.47
2018-01-12T05:27:22.226Z,63.37
2018-01-12T05:29:49.888Z,63.53
2018-01-12T05:32:17.550Z,66.47
2018-01-12T05:34:45.168Z,63.73
2018-01-12T05:37:12.860Z,58.37
2018-01-12T05:39:40.503Z,67.73
2018-01-12T05:42:08.148Z,58.00
2018-01-12T05:44:36.821Z,60.07
2018-01-12T05:47:04.491Z,55.57
2018-01-12T05:49:32.127Z,70.90
2018-01-12T05:51:59.770Z,58.80
2018-01-12T05:54:27.388Z,61.00
2018-01-12T05:56:55.059Z,55.43
2018-01-12T05:59:22.690Z,53.73
2018-01-12T06:02:02.036Z,56.13
2018-01-12T06:04:41.555Z,52.10
2018-01-12T06:07:09.255Z,59.33
2018-01-12T06:09:36.895Z,57.43
2018-01-12T06:12:04.530Z,54.50
2018-01-12T06:14:32.243Z,52.37
2018-01-12T06:17:00.015Z,56.10
2018-01-12T06:19:27.619Z,53.13
2018-01-12T06:21:55.285Z,53.53
2018-01-12T06:24:22.890Z,65.00
2018-01-12T06:26:50.539Z,60.03
2018-01-12T06:29:18.935Z,66.17
2018-01-12T06:31:46.681Z,52.10
2018-01-12T06:34:14.260Z,45.90
2018-01-12T06:36:41.933Z,56.40
2018-01-12T06:39:09.995Z,62.17
2018-01-12T06:41:37.671Z,57.50
2018-01-12T06:44:05.925Z,78.07
2018-01-12T06:46:33.610Z,71.93
2018-01-12T06:49:01.233Z,70.00
2018-01-12T06:51:28.894Z,82.37
2018-01-12T06:53:56.514Z,62.67
2018-01-12T06:56:24.790Z,68.93
2018-01-12T06:58:53.036Z,81.37
2018-01-12T07:01:20.770Z,80.00
2018-01-12T07:03:48.403Z,80.67
2018-01-12T07:06:16.083Z,84.80
2018-01-12T07:08:43.713Z,87.60
2018-01-12T07:11:11.354Z,85.37
2018-01-12T07:13:38.992Z,71.07
2018-01-12T07:16:06.711Z,73.77
2018-01-12T07:18:34.375Z,70.50
2018-01-12T07:21:13.717Z,83.07
2018-01-12T07:23:46.930Z,77.67
2018-01-12T07:26:14.613Z,58.80
2018-01-12T07:28:42.230Z,73.57
2018-01-12T07:31:10.832Z,77.13
2018-01-12T07:33:38.511Z,73.97
2018-01-12T07:36:06.428Z,76.70
2018-01-12T07:38:34.145Z,67.77
2018-01-12T07:41:01.834Z,85.77
2018-01-12T07:43:30.364Z,73.57
2018-01-12T07:45:58.745Z,66.77
2018-01-12T07:48:26.721Z,75.63
2018-01-12T07:50:54.730Z,77.90
2018-01-12T07:53:23.000Z,79.53
2018-01-12T07:55:50.973Z,65.63
2018-01-12T07:58:19.077Z,67.30
2018-01-12T08:00:52.625Z,67.57
2018-01-12T08:03:20.746Z,78.50
2018-01-12T08:05:48.811Z,68.13
2018-01-12T08:08:16.876Z,64.37
2018-01-12T08:10:44.938Z,62.87
2018-01-12T08:13:13.716Z,59.40
2018-01-12T08:15:41.865Z,60.87
2018-01-12T08:18:09.820Z,75.60
2018-01-12T08:20:38.081Z,72.87
2018-01-12T08:23:06.871Z,57.07
2018-01-12T08:25:34.995Z,82.23
2018-01-12T08:28:02.989Z,71.10
2018-01-12T08:30:30.995Z,68.97
2018-01-12T08:32:58.934Z,69.27
2018-01-12T08:35:26.983Z,71.87
2018-01-12T08:37:55.088Z,82.83
2018-01-12T08:40:23.053Z,79.47
2018-01-12T08:42:50.990Z,70.13
2018-01-12T08:45:18.952Z,73.47
2018-01-12T08:47:47.677Z,73.03
2018-01-12T08:50:15.625Z,64.53
2018-01-12T08:52:43.617Z,62.83
2018-01-12T08:55:11.524Z,71.87
2018-01-12T08:57:39.566Z,72.37
2018-01-12T09:00:08.043Z,73.07
2018-01-12T09:02:36.612Z,69.60
2018-01-12T09:05:04.652Z,81.07
2018-01-12T09:07:33.504Z,87.57
2018-01-12T09:10:01.556Z,76.13
2018-01-12T09:12:29.485Z,85.13
2018-01-12T09:17:52.445Z,79.10
2018-01-12T09:20:20.057Z,81.97
2018-01-12T09:22:48.412Z,76.80
2018-01-12T09:25:23.643Z,75.93
2018-01-12T09:27:51.218Z,79.63
2018-01-12T09:30:18.845Z,82.77
2018-01-12T09:32:49.331Z,82.97
2018-01-12T09:35:17.013Z,91.47
2018-01-12T09:37:44.620Z,86.07
2018-01-12T09:43:17.815Z,70.70
2018-01-12T09:45:45.441Z,87.57
2018-01-12T09:48:26.041Z,72.53
2018-01-12T09:50:53.657Z,71.30
2018-01-12T09:53:21.240Z,92.57
2018-01-12T09:55:48.865Z,80.40
2018-01-12T09:58:16.573Z,74.40
2018-01-12T10:01:00.813Z,68.33
2018-01-12T10:03:28.409Z,79.63
2018-01-12T10:05:56.134Z,89.53
2018-01-12T10:08:26.423Z,79.37
2018-01-12T10:10:54.058Z,65.93
2018-01-12T10:13:21.671Z,84.77
2018-01-12T10:15:49.280Z,93.37
2018-01-12T10:18:26.234Z,82.40
2018-01-12T10:20:53.837Z,82.23
2018-01-12T10:23:21.466Z,85.90
2018-01-12T10:25:49.063Z,80.83
2018-01-12T10:28:19.304Z,90.07
2018-01-12T10:30:58.803Z,91.73
2018-01-12T10:33:42.585Z,82.03
2018-01-12T10:36:10.198Z,81.67
2018-01-12T10:38:37.829Z,83.13
2018-01-12T10:54:34.913Z,90.40
2018-01-12T10:57:03.269Z,83.87
2018-01-12T10:59:30.902Z,92.10
2018-01-12T11:01:58.525Z,85.70
2018-01-12T11:04:26.179Z,77.77
2018-01-12T11:06:53.780Z,99.30
2018-01-12T11:09:21.399Z,87.80
2018-01-12T11:11:49.009Z,92.33
2018-01-12T11:14:16.626Z,91.37
2018-01-12T11:16:44.226Z,89.93
2018-01-12T11:19:11.855Z,86.27
2018-01-12T11:21:39.521Z,84.57
2018-01-12T11:24:07.203Z,77.00
2018-01-12T11:26:34.827Z,82.93
2018-01-12T11:29:02.462Z,85.47
2018-01-12T11:31:30.303Z,79.93
2018-01-12T11:33:57.931Z,68.50
2018-01-12T11:36:25.556Z,81.47
2018-01-12T11:38:53.175Z,74.10
2018-01-12T11:41:20.782Z,74.47
2018-01-12T11:43:48.534Z,79.30
2018-01-12T11:46:16.094Z,66.27
2018-01-12T11:48:43.711Z,74.13
2018-01-12T11:51:11.309Z,74.80
2018-01-12T11:53:38.958Z,72.57
2018-01-12T11:56:06.562Z,71.67
2018-01-12T11:58:34.186Z,73.80
2018-01-12T12:01:01.810Z,81.37
2018-01-12T12:03:29.455Z,69.60
2018-01-12T12:05:57.056Z,84.20
2018-01-12T12:08:24.721Z,78.60
2018-01-12T12:10:52.337Z,85.53
2018-01-12T12:13:19.945Z,89.10
2018-01-12T12:15:47.541Z,89.77
2018-01-12T12:18:15.172Z,81.03
2018-01-12T12:20:42.782Z,83.60
2018-01-12T12:23:10.532Z,72.80
2018-01-12T12:25:38.129Z,77.07
2018-01-12T12:28:06.581Z,73.87
2018-01-12T12:30:34.171Z,80.43
2018-01-12T12:33:01.803Z,84.73
2018-01-12T12:35:29.403Z,82.77
2018-01-12T12:37:57.112Z,90.33
2018-01-12T12:40:24.717Z,86.70
2018-01-12T12:42:52.339Z,89.97
2018-01-12T12:45:19.990Z,77.87
2018-01-12T12:47:47.606Z,92.97
2018-01-12T12:50:15.213Z,99.73
2018-01-12T12:52:42.865Z,92.30
2018-01-12T12:55:10.451Z,84.87
2018-01-12T12:57:38.089Z,96.03
2018-01-12T13:00:05.802Z,86.83
2018-01-12T13:02:33.429Z,95.03
2018-01-12T13:05:01.036Z,94.23
2018-01-12T13:07:28.665Z,105.77
2018-01-12T13:09:56.285Z,88.77
2018-01-12T13:12:24.015Z,91.60
2018-01-12T13:14:51.618Z,109.10
2018-01-12T13:17:19.237Z,106.27
2018-01-12T13:19:46.854Z,99.37
2018-01-12T13:22:14.503Z,93.80
2018-01-12T13:24:42.250Z,100.23
2018-01-12T13:27:09.821Z,92.17
2018-01-12T13:29:37.457Z,99.27
2018-01-12T13:32:05.061Z,99.80
2018-01-12T13:34:32.682Z,95.30
2018-01-12T13:37:00.310Z,102.13
2018-01-12T13:39:28.001Z,94.60
2018-01-12T13:41:55.555Z,99.93
2018-01-12T13:44:23.243Z,88.60
2018-01-12T13:46:50.853Z,97.20
2018-01-12T13:49:18.503Z,91.97
2018-01-12T13:51:46.233Z,90.60
2018-01-12T13:54:13.871Z,97.97
2018-01-12T13:56:41.471Z,106.83
2018-01-12T13:59:09.103Z,94.53
2018-01-12T14:01:36.701Z,92.40
2018-01-12T14:04:04.445Z,98.33
2018-01-12T14:06:32.055Z,107.50
2018-01-12T14:08:59.706Z,98.80
2018-01-12T14:11:27.419Z,105.87
2018-01-12T14:13:55.066Z,85.17
2018-01-12T14:16:22.655Z,93.07
2018-01-12T14:18:50.273Z,99.33
2018-01-12T14:21:17.876Z,99.40
2018-01-12T14:23:45.489Z,103.47
2018-01-12T14:26:13.102Z,96.20
2018-01-12T14:28:40.829Z,107.60
2018-01-12T14:31:08.438Z,91.63
2018-01-12T14:33:36.101Z,116.10
2018-01-12T14:36:03.774Z,108.47
2018-01-12T14:38:31.417Z,109.07
2018-01-12T14:40:59.010Z,92.00
2018-01-12T14:43:26.635Z,93.97
2018-01-12T14:45:54.250Z,98.60
2018-01-12T14:48:21.870Z,89.83
2018-01-12T14:50:49.496Z,149.20
2018-01-12T14:53:17.114Z,187.13
2018-01-12T14:55:44.721Z,98.73
2018-01-12T14:58:12.370Z,85.67
2018-01-12T15:00:39.962Z,91.50
2018-01-12T15:03:07.601Z,93.57
2018-01-12T15:05:35.281Z,92.27
2018-01-12T15:08:02.911Z,89.03
2018-01-12T15:10:30.622Z,90.27
2018-01-12T15:12:58.285Z,96.83
2018-01-12T15:15:25.885Z,92.07
2018-01-12T15:17:53.537Z,96.73
2018-01-12T15:20:21.141Z,101.37
2018-01-12T15:22:48.798Z,89.77
2018-01-12T15:25:16.405Z,80.97
2018-01-12T15:27:44.022Z,93.40
2018-01-12T15:30:11.661Z,95.13
2018-01-12T15:32:39.305Z,87.73
2018-01-12T15:35:06.945Z,101.63
2018-01-12T15:37:34.581Z,95.57
2018-01-12T15:40:02.183Z,96.90
2018-01-12T15:42:29.895Z,95.37
2018-01-12T15:44:57.510Z,100.17
2018-01-12T15:47:25.143Z,100.37
2018-01-12T15:49:52.743Z,97.70
2018-01-12T15:52:20.382Z,94.10
2018-01-12T15:54:47.961Z,84.10
2018-01-12T15:57:15.615Z,95.43
2018-01-12T15:59:43.202Z,86.63
2018-01-12T16:02:10.854Z,97.87
2018-01-12T16:04:38.484Z,90.37
2018-01-12T16:07:06.248Z,102.67
2018-01-12T16:09:33.861Z,99.07
2018-01-12T16:12:01.518Z,100.17
2018-01-12T16:14:29.110Z,103.60
2018-01-12T16:16:56.750Z,108.03
2018-01-12T16:19:24.348Z,90.87
2018-01-12T16:21:52.112Z,106.17
2018-01-12T16:24:19.706Z,100.90
2018-01-12T16:26:47.451Z,101.50
2018-01-12T16:29:15.039Z,91.13
2018-01-12T16:31:42.650Z,99.50
2018-01-12T16:34:10.423Z,95.63
2018-01-12T16:36:38.031Z,97.57
2018-01-12T16:39:05.667Z,83.03
2018-01-12T16:41:33.282Z,105.50
2018-01-12T16:44:00.915Z,89.20
2018-01-12T16:46:28.533Z,87.47
2018-01-12T16:48:56.177Z,92.83
2018-01-12T16:51:23.761Z,83.47
2018-01-12T16:53:51.406Z,105.33
2018-01-12T16:56:19.010Z,94.30
2018-01-12T16:58:46.632Z,107.67
2018-01-12T17:01:14.237Z,87.83
2018-01-12T17:03:41.866Z,97.43
2018-01-12T17:06:09.470Z,102.30
2018-01-12T17:08:37.155Z,92.77
2018-01-12T17:11:04.742Z,95.30
2018-01-12T17:13:32.359Z,82.77
2018-01-12T17:15:59.973Z,101.03
2018-01-12T17:18:27.633Z,85.10
2018-01-12T17:20:55.230Z,90.70
2018-01-12T17:23:22.871Z,93.00
2018-01-12T17:25:50.498Z,85.40
2018-01-12T17:28:18.146Z,92.60
2018-01-12T17:30:45.751Z,86.33
2018-01-12T17:33:13.381Z,89.53
2018-01-12T17:35:40.996Z,89.47
2018-01-12T17:38:08.648Z,97.43
2018-01-12T17:40:36.242Z,85.50
2018-01-12T17:43:03.893Z,94.00
2018-01-12T17:45:31.482Z,92.20
2018-01-12T17:47:59.126Z,87.97
2018-01-12T17:50:26.734Z,85.93
2018-01-12T17:52:54.381Z,79.00
2018-01-12T17:55:22.005Z,90.63
2018-01-12T17:57:49.649Z,101.30
2018-01-12T18:00:17.246Z,90.60
2018-01-12T18:02:44.874Z,112.53
2018-01-12T18:05:12.480Z,107.07
2018-01-12T18:07:40.114Z,86.57
2018-01-12T18:10:07.727Z,81.40
2018-01-12T18:12:35.361Z,85.23
2018-01-12T18:15:02.948Z,96.00
2018-01-12T18:17:30.598Z,88.67
2018-01-12T18:19:58.214Z,84.17
2018-01-12T18:22:25.858Z,94.23
2018-01-12T18:24:53.511Z,98.13
2018-01-12T18:27:21.173Z,85.00
2018-01-12T18:29:48.781Z,94.33
2018-01-12T18:32:16.426Z,90.90
2018-01-12T18:34:44.060Z,95.50
2018-01-12T18:37:11.899Z,90.37
2018-01-12T18:39:39.563Z,98.50
2018-01-12T18:42:07.196Z,98.83
2018-01-12T18:44:34.806Z,88.00
2018-01-12T18:47:02.541Z,86.60
2018-01-12T18:49:30.202Z,97.33
2018-01-12T18:51:57.821Z,85.20
2018-01-12T18:54:25.446Z,93.97
2018-01-12T18:56:53.043Z,98.30
2018-01-12T18:59:20.693Z,103.00
2018-01-12T19:01:48.300Z,90.43
2018-01-12T19:04:15.960Z,102.63
2018-01-12T19:06:43.609Z,86.80
2018-01-12T19:09:11.241Z,86.67
2018-01-12T19:11:38.875Z,91.77
2018-01-12T19:14:06.473Z,88.90
2018-01-12T19:16:34.094Z,87.90
2018-01-12T19:19:01.707Z,90.17
2018-01-12T19:21:29.379Z,82.93
2018-01-12T19:23:57.045Z,88.40
2018-01-12T19:26:24.693Z,92.90
2018-01-12T19:28:52.281Z,90.27
2018-01-12T19:31:19.917Z,87.33
2018-01-12T19:33:47.572Z,91.23
2018-01-12T19:36:15.205Z,92.63
2018-01-12T19:38:42.836Z,93.83
2018-01-12T19:41:10.450Z,94.33
2018-01-12T19:43:38.127Z,79.73
2018-01-12T19:46:05.777Z,95.30
2018-01-12T19:48:33.461Z,82.17
2018-01-12T19:51:01.067Z,103.60
2018-01-12T19:53:28.693Z,87.20
2018-01-12T19:55:56.318Z,86.93
2018-01-12T19:58:23.957Z,83.23
2018-01-12T20:00:51.577Z,91.87
2018-01-12T20:03:19.272Z,83.10
2018-01-12T20:05:46.953Z,88.77
2018-01-12T20:08:14.593Z,92.90
2018-01-12T20:10:42.520Z,83.50
2018-01-12T20:13:10.258Z,85.07
2018-01-12T20:15:37.979Z,93.47
2018-01-12T20:18:05.809Z,88.97
2018-01-12T20:20:33.690Z,90.70
2018-01-12T20:23:01.674Z,98.20
2018-01-12T20:25:29.314Z,84.23
2018-01-12T20:27:56.961Z,105.63
2018-01-12T20:30:24.574Z,91.57
2018-01-12T20:32:52.508Z,132.67
2018-01-12T20:35:20.137Z,95.33
2018-01-12T20:37:47.766Z,88.40
2018-01-12T20:40:15.360Z,88.17
2018-01-12T20:42:43.223Z,82.93
2018-01-12T20:45:11.042Z,82.67
2018-01-12T20:47:38.710Z,92.87
2018-01-12T20:50:06.306Z,85.40
2018-01-12T20:52:33.938Z,74.83
2018-01-12T20:55:01.588Z,93.30
2018-01-12T20:57:29.352Z,79.23
2018-01-12T20:59:56.957Z,84.27
2018-01-12T21:02:24.601Z,78.27
2018-01-12T21:04:52.198Z,93.97
2018-01-12T21:07:19.835Z,78.47
2018-01-12T21:09:47.438Z,97.93
2018-01-12T21:12:15.078Z,99.93
2018-01-12T21:14:42.666Z,97.57
2018-01-12T21:17:10.457Z,86.93
2018-01-12T21:19:38.073Z,85.23
2018-01-12T21:22:05.881Z,73.63
2018-01-12T21:24:33.546Z,76.40
2018-01-12T21:27:01.158Z,82.67
2018-01-12T21:29:28.815Z,72.40
2018-01-12T21:31:56.439Z,77.10
2018-01-12T21:34:24.039Z,66.60
2018-01-12T21:36:51.657Z,68.60
2018-01-12T21:39:19.276Z,80.07
2018-01-12T21:41:46.902Z,55.43
2018-01-12T21:44:14.517Z,61.27
2018-01-12T21:46:42.131Z,68.57
2018-01-12T21:49:09.742Z,83.90
2018-01-12T21:51:37.391Z,74.00
2018-01-12T21:54:05.019Z,66.87
2018-01-12T21:56:32.644Z,71.07
2018-01-12T21:59:00.286Z,72.87
2018-01-12T22:01:27.921Z,66.03
2018-01-12T22:03:55.526Z,66.80
2018-01-12T22:06:23.157Z,57.50
2018-01-12T22:08:50.766Z,65.50
2018-01-12T22:11:18.389Z,74.90
2018-01-12T22:13:45.987Z,61.53
2018-01-12T22:16:13.643Z,59.60
2018-01-12T22:18:41.230Z,64.67
2018-01-12T22:21:08.871Z,68.67
2018-01-12T22:23:36.458Z,60.80
2018-01-12T22:26:04.074Z,65.80
2018-01-12T22:28:31.684Z,62.87
2018-01-12T22:30:59.302Z,60.43
2018-01-12T22:33:26.905Z,66.47
2018-01-12T22:35:54.534Z,91.10
2018-01-12T22:38:22.141Z,64.90
2018-01-12T22:40:49.764Z,58.43
2018-01-12T22:43:17.366Z,55.67
2018-01-12T22:45:45.008Z,57.07
2018-01-12T22:48:12.602Z,71.43
2018-01-12T22:50:40.230Z,60.60
2018-01-12T22:53:07.827Z,69.40
2018-01-12T22:55:35.482Z,54.53
2018-01-12T22:58:03.083Z,72.13
2018-01-12T23:00:30.714Z,64.07
2018-01-12T23:02:58.294Z,70.43
2018-01-12T23:05:25.950Z,63.97
2018-01-12T23:07:53.654Z,57.30
2018-01-12T23:10:21.307Z,59.00
2018-01-12T23:12:48.912Z,62.17
2018-01-12T23:15:16.570Z,69.47
2018-01-12T23:17:44.258Z,60.17
2018-01-12T23:20:11.886Z,68.50
2018-01-12T23:22:39.609Z,63.37
2018-01-12T23:25:07.226Z,62.83
2018-01-12T23:27:34.839Z,62.67
2018-01-12T23:30:02.530Z,61.33
2018-01-12T23:32:30.130Z,70.10
2018-01-12T23:34:57.753Z,57.70
2018-01-12T23:37:25.440Z,59.20
2018-01-12T23:39:53.058Z,61.40
2018-01-12T23:42:20.645Z,68.43
2018-01-12T23:44:48.273Z,57.53
2018-01-12T23:47:15.857Z,61.80
2018-01-12T23:49:43.485Z,60.80
2018-01-12T23:52:11.237Z,56.73
2018-01-12T23:54:38.849Z,67.57
2018-01-12T23:57:06.586Z,58.10
2018-01-12T23:59:34.214Z,61.23
